Estación de Nueva Aldea INIA

Ultimos registro cada 15 minutos 61
Estación Fecha / Hora Temperatura Humedad Lluvia Velocidad Dirección Radiación Presion
61 Nueva Aldea INIA 05-09-2026 15:00 18,5 24,2 0 1,8 118 437,4 1010
60 Nueva Aldea INIA 05-09-2026 14:45 18,5 31,5 0 2,1 107 455,2 1010
59 Nueva Aldea INIA 05-09-2026 14:30 18,8 28,6 0 1,4 119 471,6 1010
58 Nueva Aldea INIA 05-09-2026 14:15 18,5 29,6 0 1,2 113 483,7 1010
57 Nueva Aldea INIA 05-09-2026 14:00 18,4 26,9 0 1,6 99 494,9 1011
56 Nueva Aldea INIA 05-09-2026 13:45 18,2 27,1 0 1 94 503,2 1011
55 Nueva Aldea INIA 05-09-2026 13:30 18 30,2 0 1,2 109 508,7 1011
54 Nueva Aldea INIA 05-09-2026 13:15 17,5 37,4 0 1,1 120 511,6 1011
53 Nueva Aldea INIA 05-09-2026 13:00 17 30,6 0 1,6 122 509,5 1012
52 Nueva Aldea INIA 05-09-2026 12:45 16,8 34,1 0 1,3 110 507,3 1012
51 Nueva Aldea INIA 05-09-2026 12:30 16,5 36,1 0 0,8 124 501,2 1012
50 Nueva Aldea INIA 05-09-2026 12:15 15,8 42,3 0 1,4 110 473,3 1013
49 Nueva Aldea INIA 05-09-2026 12:00 15,2 36,8 0 1,3 101 482,2 1013
48 Nueva Aldea INIA 05-09-2026 11:45 14,6 43,1 0 1,6 103 469,3 1013
47 Nueva Aldea INIA 05-09-2026 11:30 14,2 42,7 0 1,4 134 452,7 1013
46 Nueva Aldea INIA 05-09-2026 11:15 13,9 42,2 0 1,3 130 434,9 1013
45 Nueva Aldea INIA 05-09-2026 11:00 13,3 43,4 0 1,1 125 414,5 1013
44 Nueva Aldea INIA 05-09-2026 10:45 12,5 47,8 0 1,2 106 392,2 1013
43 Nueva Aldea INIA 05-09-2026 10:30 12,2 47,5 0 0,7 111 367,5 1014
42 Nueva Aldea INIA 05-09-2026 10:15 11,7 49,4 0 0,6 118 341,1 1014
41 Nueva Aldea INIA 05-09-2026 10:00 11 53,8 0 0,8 119 316,3 1014
40 Nueva Aldea INIA 05-09-2026 09:45 10,3 56,3 0 1,2 115 286,1 1014
39 Nueva Aldea INIA 05-09-2026 09:30 9,9 57,1 0 1 101 255,2 1014
38 Nueva Aldea INIA 05-09-2026 09:15 9,4 59,2 0 0,5 88 222,5 1014
37 Nueva Aldea INIA 05-09-2026 09:00 8,7 60 0 0,3 70 189,5 1014
36 Nueva Aldea INIA 05-09-2026 08:45 7,8 69,5 0 0 317 156,6 1014
35 Nueva Aldea INIA 05-09-2026 08:30 6,9 69,8 0 0 105 123,1 1014
34 Nueva Aldea INIA 05-09-2026 08:15 6 76 0 0,1 353 39,2 1014
33 Nueva Aldea INIA 05-09-2026 08:00 5,7 77,5 0 0,1 310 14,5 1014
32 Nueva Aldea INIA 05-09-2026 07:45 5,6 80,6 0 0 334 11,8 1014
31 Nueva Aldea INIA 05-09-2026 07:30 5,5 79,8 0 0,2 280 8,4 1014
30 Nueva Aldea INIA 05-09-2026 07:15 5,4 82 0 0,2 309 4,4 1014
29 Nueva Aldea INIA 05-09-2026 07:00 5,4 81,7 0 0 10 1 1014
28 Nueva Aldea INIA 05-09-2026 06:45 5,4 83,6 0 0 0 0 1014
27 Nueva Aldea INIA 05-09-2026 06:30 5,7 81,9 0 0 0 0 1014
26 Nueva Aldea INIA 05-09-2026 06:15 5,9 81,6 0 0 0 0 1014
25 Nueva Aldea INIA 05-09-2026 06:00 5,8 81,5 0 0,1 188 0 1014
24 Nueva Aldea INIA 05-09-2026 05:45 5,8 83,8 0 0 233 0 1014
23 Nueva Aldea INIA 05-09-2026 05:30 5,6 84,3 0 0 318 0 1015
22 Nueva Aldea INIA 05-09-2026 05:15 5,8 84,8 0 0 0 0 1015
21 Nueva Aldea INIA 05-09-2026 05:00 5,9 84,4 0 0 0 0 1015
20 Nueva Aldea INIA 05-09-2026 04:45 6,3 82,9 0 0 0 0 1015
19 Nueva Aldea INIA 05-09-2026 04:30 6,6 79,8 0 0,2 324 0 1015
18 Nueva Aldea INIA 05-09-2026 04:15 6,8 79,3 0 0,3 142 0 1015
17 Nueva Aldea INIA 05-09-2026 04:00 6,7 78,8 0 0,4 94 0 1015
16 Nueva Aldea INIA 05-09-2026 03:45 6,8 79,9 0 0 128 0 1015
15 Nueva Aldea INIA 05-09-2026 03:30 7 78,7 0 0,2 130 0 1016
14 Nueva Aldea INIA 05-09-2026 03:15 7,2 77,9 0 0,5 91 0 1016
13 Nueva Aldea INIA 05-09-2026 03:00 7 76,8 0 0,6 100 0 1016
12 Nueva Aldea INIA 05-09-2026 02:45 7,1 78,8 0 0,2 314 0 1016
11 Nueva Aldea INIA 05-09-2026 02:30 7,4 75,5 0 0,4 230 0 1016
10 Nueva Aldea INIA 05-09-2026 02:15 7,4 75,6 0 0,5 111 0 1017
9 Nueva Aldea INIA 05-09-2026 02:00 7,5 75,2 0 0,6 96 0 1017
8 Nueva Aldea INIA 05-09-2026 01:45 7,5 75,2 0 0,4 98 0 1017
7 Nueva Aldea INIA 05-09-2026 01:30 7,6 74,1 0 1 87 0 1017
6 Nueva Aldea INIA 05-09-2026 01:15 7,6 73,8 0 1,3 86 0 1017
5 Nueva Aldea INIA 05-09-2026 01:00 7,7 72,8 0 0,6 95 0 1017
4 Nueva Aldea INIA 05-09-2026 00:45 7,7 71,5 0 0,8 91 0 1017
3 Nueva Aldea INIA 05-09-2026 00:30 7,8 70,9 0 0,3 173 0 1018
2 Nueva Aldea INIA 05-09-2026 00:15 7,9 70,5 0 0,3 65 0 1018
1 Nueva Aldea INIA 05-09-2026 00:00 7,8 69,2 0 0,4 137 0 1018